Time;durP1;ratioP1;P1;durP2;ratioP2;P2;SDS_P1;SDS_P2;PMS_P1;PMS_P2;Temp;Humidity;BMP_temperature;BMP_pressure;BME280_temperature;BME280_humidity;BME280_pressure;Samples;Min_cycle;Max_cycle;Signal;HPM_P1;HPM_P2
2021/12/10 00:00:48;;;;;;;19.85;7.13;;;;;;;-12.10;65.38;101231.44;5031224;28;20029;-51
2021/12/10 00:03:26;;;;;;;17.05;7.15;;;;;;;-11.98;65.57;101231.84;5031587;28;20555;-47
2021/12/10 00:05:56;;;;;;;15.70;6.15;;;;;;;-12.10;65.55;101241.75;5031488;28;20044;-50
2021/12/10 00:08:24;;;;;;;19.30;6.05;;;;;;;-12.11;65.49;101229.66;5031252;28;20079;-51
2021/12/10 00:10:55;;;;;;;15.25;5.53;;;;;;;-12.13;66.17;101233.91;5031090;28;20026;-47
2021/12/10 00:13:21;;;;;;;8.63;1.85;;;;;;;-12.01;65.49;101224.03;5031011;28;20140;-49
2021/12/10 00:15:47;;;;;;;10.90;3.33;;;;;;;-11.97;65.50;101230.13;5031482;28;20099;-49
2021/12/10 00:18:17;;;;;;;13.88;5.28;;;;;;;-11.93;65.32;101233.69;5031720;28;20029;-51
2021/12/10 00:20:44;;;;;;;16.50;6.47;;;;;;;-12.07;65.37;101233.25;5031087;28;20032;-54
2021/12/10 00:23:14;;;;;;;12.10;5.57;;;;;;;-12.14;66.16;101227.00;5031097;28;20026;-49
2021/12/10 00:25:51;;;;;;;12.32;5.18;;;;;;;-11.92;65.61;101240.59;5031151;28;20049;-48
2021/12/10 00:28:23;;;;;;;15.13;6.07;;;;;;;-12.02;65.12;101235.19;5030998;28;20454;-51
2021/12/10 00:31:49;;;;;;;20.08;7.03;;;;;;;-12.02;65.41;101244.63;5031139;28;20026;-50
2021/12/10 00:34:12;;;;;;;14.70;5.65;;;;;;;-11.97;65.60;101237.88;5033615;28;20132;-48
2021/12/10 00:36:39;;;;;;;6.28;2.75;;;;;;;-11.80;64.53;101227.22;5030118;28;20038;-48
2021/12/10 00:39:07;;;;;;;14.35;6.40;;;;;;;-11.84;64.54;101227.13;5030925;28;20125;-51
2021/12/10 00:41:33;;;;;;;8.10;3.83;;;;;;;-11.87;64.53;101223.56;5030555;28;20033;-48
2021/12/10 00:43:59;;;;;;;18.73;6.40;;;;;;;-11.89;64.74;101241.59;5031093;28;20033;-49
2021/12/10 00:46:25;;;;;;;15.50;6.30;;;;;;;-12.04;65.13;101239.41;5030414;28;20037;-50
2021/12/10 00:48:50;;;;;;;13.25;6.07;;;;;;;-12.07;65.46;101246.16;5030825;28;20036;-49
2021/12/10 00:51:16;;;;;;;10.25;4.07;;;;;;;-11.77;64.73;101254.06;5031148;28;20471;-46
2021/12/10 00:53:42;;;;;;;12.98;4.80;;;;;;;-11.60;64.04;101244.28;5032740;28;20032;-50
2021/12/10 00:56:09;;;;;;;17.60;6.57;;;;;;;-11.71;64.27;101241.34;5034384;28;20474;-53
2021/12/10 00:58:36;;;;;;;17.05;7.10;;;;;;;-11.93;64.45;101229.41;5034847;28;20230;-50
2021/12/10 01:01:13;;;;;;;15.60;6.07;;;;;;;-11.71;64.55;101243.03;5034132;28;20560;-47
2021/12/10 01:03:47;;;;;;;18.38;6.88;;;;;;;-11.86;65.05;101243.41;5034092;28;20030;-48
2021/12/10 01:06:16;;;;;;;17.33;6.85;;;;;;;-11.91;65.28;101240.69;5034823;28;20032;-51
2021/12/10 01:08:44;;;;;;;12.15;5.50;;;;;;;-11.84;65.13;101240.06;5034084;28;20087;-50
2021/12/10 01:11:19;;;;;;;13.38;6.13;;;;;;;-11.79;65.35;101247.97;5034141;28;20033;-52
2021/12/10 01:13:50;;;;;;;16.42;6.22;;;;;;;-11.83;65.49;101240.91;5034485;28;20430;-53
2021/12/10 01:24:49;;;;;;;12.13;5.53;;;;;;;-11.67;65.46;101242.34;5034298;28;20087;-46
2021/12/10 01:27:34;;;;;;;7.82;3.00;;;;;;;-11.64;65.07;101249.28;5033351;28;20048;-46
2021/12/10 01:30:09;;;;;;;10.98;4.55;;;;;;;-11.53;64.98;101235.03;5034101;28;20040;-50
2021/12/10 01:32:39;;;;;;;13.45;5.57;;;;;;;-11.51;64.78;101247.97;5033709;28;20112;-48
2021/12/10 01:35:09;;;;;;;8.55;3.38;;;;;;;-11.46;64.77;101239.56;5032290;28;20026;-50
2021/12/10 01:37:36;;;;;;;12.35;5.10;;;;;;;-11.52;64.59;101248.81;5033478;28;20036;-51
2021/12/10 01:40:04;;;;;;;12.63;5.32;;;;;;;-11.48;64.42;101248.06;5033938;28;20025;-51
2021/12/10 01:42:43;;;;;;;9.75;4.38;;;;;;;-11.58;64.53;101242.63;5033865;28;20064;-51
2021/12/10 01:45:19;;;;;;;12.50;5.55;;;;;;;-11.58;64.93;101252.06;5033272;28;20115;-50
2021/12/10 01:47:48;;;;;;;11.20;4.72;;;;;;;-11.69;65.40;101249.16;5033157;28;20117;-51
2021/12/10 01:50:15;;;;;;;14.18;5.45;;;;;;;-11.74;65.48;101255.84;5033763;28;20072;-49
2021/12/10 01:52:40;;;;;;;13.93;5.13;;;;;;;-11.79;65.55;101255.72;5033440;28;20355;-52
2021/12/10 01:55:07;;;;;;;14.63;6.00;;;;;;;-11.79;65.36;101247.97;5033233;28;20102;-47
2021/12/10 01:57:37;;;;;;;16.90;6.05;;;;;;;-11.75;65.62;101260.16;5033112;28;20374;-49
2021/12/10 02:00:08;;;;;;;18.95;5.63;;;;;;;-11.79;65.78;101258.31;5033586;28;20060;-47
2021/12/10 02:02:35;;;;;;;13.90;5.90;;;;;;;-11.81;65.70;101265.13;5033561;28;20048;-49
2021/12/10 02:05:04;;;;;;;16.35;6.32;;;;;;;-11.87;65.55;101258.03;5032259;28;20021;-49
2021/12/10 02:07:30;;;;;;;9.25;3.90;;;;;;;-11.80;65.68;101263.41;5032940;28;20449;-52
2021/12/10 02:09:56;;;;;;;12.57;5.68;;;;;;;-11.79;65.44;101266.06;5033176;28;20021;-46
2021/12/10 02:12:22;;;;;;;15.25;6.43;;;;;;;-11.88;65.88;101263.13;5033621;28;20378;-50
2021/12/10 02:14:58;;;;;;;13.25;5.68;;;;;;;-11.76;65.87;101262.66;5033073;28;20025;-47
2021/12/10 02:17:25;;;;;;;13.85;6.00;;;;;;;-11.72;65.14;101268.00;5032701;28;20389;-52
2021/12/10 02:19:51;;;;;;;18.83;5.93;;;;;;;-11.76;65.52;101260.09;5033214;28;20037;-49
2021/12/10 02:22:16;;;;;;;19.25;6.28;;;;;;;-11.73;65.59;101263.66;5032976;28;20026;-47
2021/12/10 02:24:42;;;;;;;12.70;5.43;;;;;;;-11.78;65.88;101264.31;5032362;28;20359;-49
2021/12/10 02:27:08;;;;;;;16.00;6.55;;;;;;;-11.73;65.72;101262.78;5032551;28;20485;-49
2021/12/10 02:29:38;;;;;;;16.52;6.80;;;;;;;-11.66;65.27;101267.34;5032528;28;20059;-51
2021/12/10 02:32:08;;;;;;;20.77;7.07;;;;;;;-11.65;65.22;101261.34;5032525;28;20488;-48
2021/12/10 02:34:33;;;;;;;13.40;5.95;;;;;;;-11.75;65.20;101261.84;5032605;28;20033;-49
2021/12/10 02:36:59;;;;;;;14.35;5.45;;;;;;;-11.66;65.37;101253.53;5032548;28;20029;-52
2021/12/10 02:39:26;;;;;;;18.50;7.47;;;;;;;-11.74;65.19;101261.91;5033061;28;20033;-46
2021/12/10 02:41:52;;;;;;;18.35;8.00;;;;;;;-11.82;65.31;101256.47;5032509;28;20041;-48
2021/12/10 02:44:22;;;;;;;20.13;7.88;;;;;;;-11.70;65.23;101268.94;5032453;28;20044;-53
2021/12/10 02:46:48;;;;;;;25.70;9.20;;;;;;;-11.87;65.56;101245.13;5032636;28;20061;-50
2021/12/10 02:49:16;;;;;;;25.38;8.70;;;;;;;-11.85;65.62;101268.41;5032223;28;20071;-50
2021/12/10 02:51:42;;;;;;;17.52;7.25;;;;;;;-11.81;65.88;101265.13;5032229;28;20025;-47
2021/12/10 02:54:11;;;;;;;27.60;9.73;;;;;;;-11.83;66.19;101282.25;5032502;28;20528;-46
2021/12/10 02:56:39;;;;;;;26.27;9.35;;;;;;;-11.86;66.07;101279.56;5031916;28;20032;-47
2021/12/10 02:59:05;;;;;;;24.85;9.02;;;;;;;-11.86;66.19;101276.97;5032269;28;20105;-46
2021/12/10 03:01:36;;;;;;;21.23;8.75;;;;;;;-11.81;65.94;101272.88;5032260;28;20028;-52
2021/12/10 03:04:03;;;;;;;24.40;9.80;;;;;;;-11.82;66.07;101282.31;5031776;28;20033;-50
2021/12/10 03:06:30;;;;;;;24.65;9.48;;;;;;;-11.80;65.88;101281.47;5031735;28;20041;-49
2021/12/10 03:08:57;;;;;;;29.75;11.45;;;;;;;-11.85;66.20;101276.16;5032380;28;20124;-52
2021/12/10 03:11:27;;;;;;;29.85;10.68;;;;;;;-11.84;66.46;101277.91;5030879;28;20105;-48
2021/12/10 03:13:57;;;;;;;25.83;9.77;;;;;;;-11.86;66.41;101276.97;5031563;28;20029;-49
2021/12/10 03:16:23;;;;;;;27.25;10.25;;;;;;;-11.86;66.10;101282.16;5031968;28;20025;-48
2021/12/10 03:18:50;;;;;;;25.17;10.20;;;;;;;-11.87;66.01;101289.03;5030843;28;20040;-47
2021/12/10 03:21:16;;;;;;;28.77;10.05;;;;;;;-11.86;66.45;101287.31;5031333;28;20040;-47
2021/12/10 03:23:45;;;;;;;33.92;10.60;;;;;;;-11.86;66.32;101293.38;5031738;28;20021;-52
2021/12/10 03:26:13;;;;;;;31.80;10.95;;;;;;;-11.85;66.52;101294.22;5031895;28;20053;-46
2021/12/10 03:28:40;;;;;;;29.70;10.32;;;;;;;-11.84;66.82;101294.28;5031769;28;20482;-51
2021/12/10 03:31:07;;;;;;;26.48;10.80;;;;;;;-12.04;66.56;101265.25;5030316;28;20166;-48
2021/12/10 03:33:34;;;;;;;25.52;9.70;;;;;;;-11.82;66.28;101284.00;5031342;28;20044;-51
2021/12/10 03:36:00;;;;;;;30.10;11.18;;;;;;;-11.80;66.54;101284.97;5030495;28;20532;-52
2021/12/10 03:38:26;;;;;;;33.13;10.75;;;;;;;-11.78;66.06;101293.63;5030621;28;20033;-53
2021/12/10 03:40:52;;;;;;;32.30;11.13;;;;;;;-11.77;65.97;101297.97;5013570;28;20575;-49
2021/12/10 03:43:20;;;;;;;29.80;11.20;;;;;;;-11.82;66.02;101299.50;5031150;28;20112;-53
2021/12/10 03:45:51;;;;;;;34.20;10.88;;;;;;;-11.85;66.13;101289.06;5030256;28;20167;-54
2021/12/10 03:48:30;;;;;;;22.85;8.27;;;;;;;-11.81;66.15;101301.28;5031695;28;20116;-52
2021/12/10 03:50:58;;;;;;;30.88;11.73;;;;;;;-11.93;66.30;101301.75;5031287;28;20215;-49
2021/12/10 03:53:24;;;;;;;29.60;11.20;;;;;;;-11.95;66.72;101299.91;5030978;28;20026;-49
2021/12/10 03:55:56;;;;;;;28.42;10.23;;;;;;;-11.89;66.36;101293.25;5031568;28;20056;-48
2021/12/10 03:58:21;;;;;;;32.15;11.45;;;;;;;-12.19;66.41;101254.34;5030370;28;20492;-51
2021/12/10 04:00:51;;;;;;;27.15;10.82;;;;;;;-11.86;66.74;101300.22;5030812;28;20112;-51
2021/12/10 04:03:20;;;;;;;35.58;11.68;;;;;;;-11.79;66.27;101293.56;5031174;28;20021;-51
2021/12/10 04:05:47;;;;;;;31.60;11.85;;;;;;;-11.82;66.30;101295.22;5031398;28;20583;-49
2021/12/10 04:08:13;;;;;;;28.55;10.73;;;;;;;-11.74;65.83;101292.91;5031269;28;20040;-49
2021/12/10 04:10:38;;;;;;;25.95;10.73;;;;;;;-11.62;65.38;101296.72;5030937;28;20378;-49
2021/12/10 04:13:05;;;;;;;21.55;8.65;;;;;;;-11.60;65.50;101295.06;5031027;28;20021;-51
2021/12/10 04:15:31;;;;;;;27.90;11.55;;;;;;;-11.62;65.22;101286.38;5031298;28;20079;-51
2021/12/10 04:17:57;;;;;;;19.98;7.90;;;;;;;-11.66;64.91;101285.44;5031215;28;20033;-53
2021/12/10 04:20:26;;;;;;;28.30;10.07;;;;;;;-11.84;65.33;101252.06;5030911;28;20033;-47
2021/12/10 04:22:52;;;;;;;25.90;9.60;;;;;;;-11.91;65.21;101257.88;5029570;28;20033;-46
2021/12/10 04:25:21;;;;;;;28.35;10.27;;;;;;;-11.69;65.25;101301.69;5030557;28;20049;-48
2021/12/10 04:27:48;;;;;;;23.88;10.50;;;;;;;-11.71;65.57;101311.09;5030556;28;20061;-47
2021/12/10 04:30:16;;;;;;;23.67;9.43;;;;;;;-11.78;65.68;101306.56;5034712;28;20026;-49
2021/12/10 04:32:44;;;;;;;29.52;9.85;;;;;;;-11.85;66.27;101299.41;5034841;28;20036;-50
2021/12/10 04:35:11;;;;;;;21.48;8.05;;;;;;;-11.78;65.85;101305.66;5034728;28;20025;-48
2021/12/10 04:37:38;;;;;;;17.48;7.10;;;;;;;-11.74;65.74;101304.94;5034350;28;20375;-48
2021/12/10 04:40:07;;;;;;;27.00;9.40;;;;;;;-11.78;65.40;101303.97;5033517;28;20030;-46
2021/12/10 04:42:33;;;;;;;22.70;9.02;;;;;;;-11.72;65.07;101316.19;5034771;28;20061;-51
2021/12/10 04:45:00;;;;;;;19.80;8.13;;;;;;;-11.84;65.05;101286.56;5034667;28;20038;-45
2021/12/10 04:47:29;;;;;;;22.40;6.70;;;;;;;-11.69;65.12;101314.63;5034581;28;20044;-49
2021/12/10 04:49:55;;;;;;;25.20;9.43;;;;;;;-11.79;65.64;101325.47;5034729;28;20120;-45
2021/12/10 04:52:21;;;;;;;19.85;8.35;;;;;;;-11.98;65.59;101309.31;5034220;28;20551;-48
2021/12/10 04:54:47;;;;;;;22.05;7.68;;;;;;;-11.77;65.28;101331.56;5032958;28;20125;-47
2021/12/10 04:57:13;;;;;;;27.25;9.68;;;;;;;-11.81;65.43;101332.28;5034547;28;20029;-49
2021/12/10 04:59:39;;;;;;;23.65;8.63;;;;;;;-11.89;65.48;101325.94;5034014;28;20080;-47
2021/12/10 05:02:08;;;;;;;23.05;9.13;;;;;;;-11.86;65.69;101331.22;5032559;28;20400;-48
2021/12/10 05:04:37;;;;;;;21.65;8.75;;;;;;;-11.85;65.51;101340.72;5034469;28;20025;-47
2021/12/10 05:07:05;;;;;;;27.48;9.15;;;;;;;-11.87;65.79;101340.69;5033095;28;20038;-49
2021/12/10 05:09:31;;;;;;;23.80;9.82;;;;;;;-11.89;65.65;101344.03;5032901;28;20033;-50
2021/12/10 05:11:57;;;;;;;21.10;7.95;;;;;;;-11.93;65.75;101345.66;5033977;28;20061;-53
2021/12/10 05:14:24;;;;;;;24.88;8.65;;;;;;;-11.87;65.95;101369.09;5034005;28;20025;-48
2021/12/10 05:16:51;;;;;;;21.30;8.27;;;;;;;-11.87;66.41;101360.47;5033597;28;20029;-50
2021/12/10 05:19:21;;;;;;;20.08;7.50;;;;;;;-11.83;66.27;101359.75;5033547;28;20021;-54
2021/12/10 05:21:48;;;;;;;25.65;8.13;;;;;;;-11.68;66.00;101373.22;5032896;28;20030;-51
2021/12/10 05:24:14;;;;;;;25.17;8.27;;;;;;;-11.71;66.10;101359.31;5034047;28;20026;-53
2021/12/10 05:26:40;;;;;;;23.13;9.02;;;;;;;-11.70;65.71;101361.06;5033369;28;20045;-51
2021/12/10 05:29:08;;;;;;;27.00;9.70;;;;;;;-11.61;64.99;101360.50;5033239;28;20398;-50
2021/12/10 05:31:36;;;;;;;21.40;8.55;;;;;;;-11.75;65.29;101360.91;5034174;28;20061;-52
2021/12/10 05:34:02;;;;;;;28.48;9.60;;;;;;;-11.78;65.44;101362.50;5034225;28;20067;-52
2021/12/10 05:36:28;;;;;;;25.80;9.93;;;;;;;-11.83;65.47;101359.75;5031987;28;20397;-53
2021/12/10 05:38:53;;;;;;;16.52;6.25;;;;;;;-11.62;65.26;101358.75;5032365;28;20025;-51
2021/12/10 05:41:19;;;;;;;21.60;8.45;;;;;;;-11.87;65.01;101337.22;5033254;28;20095;-49
2021/12/10 05:43:45;;;;;;;14.85;6.63;;;;;;;-11.64;64.78;101369.06;5033684;28;20059;-48
2021/12/10 05:46:12;;;;;;;22.90;7.95;;;;;;;-11.88;65.55;101354.44;5033168;28;20033;-52
2021/12/10 05:48:39;;;;;;;22.17;8.48;;;;;;;-11.76;65.17;101366.00;5033106;28;20045;-47
2021/12/10 05:51:05;;;;;;;21.67;8.48;;;;;;;-11.85;65.67;101354.53;5033640;28;20624;-47
2021/12/10 05:53:30;;;;;;;26.38;8.30;;;;;;;-11.77;65.55;101370.31;5033292;28;20095;-49
2021/12/10 05:55:56;;;;;;;21.95;8.75;;;;;;;-11.71;65.38;101375.69;5031597;28;20594;-49
2021/12/10 05:58:22;;;;;;;20.25;9.15;;;;;;;-11.72;65.14;101362.72;5032902;28;20026;-47
2021/12/10 06:00:52;;;;;;;20.10;8.68;;;;;;;-11.69;65.28;101374.03;5033177;28;20078;-46
2021/12/10 06:03:18;;;;;;;23.50;7.72;;;;;;;-11.58;65.58;101378.69;5033585;28;20041;-47
2021/12/10 06:05:46;;;;;;;25.83;9.30;;;;;;;-11.51;65.23;101383.28;5032926;28;20464;-48
2021/12/10 06:08:13;;;;;;;22.98;9.30;;;;;;;-11.51;65.50;101392.72;5032805;28;20029;-52
2021/12/10 06:10:40;;;;;;;21.77;9.20;;;;;;;-11.45;65.30;101383.47;5040964;28;20032;-48
2021/12/10 06:13:06;;;;;;;14.82;5.65;;;;;;;-11.26;65.14;101389.28;5027459;28;20550;-49
2021/12/10 06:15:31;;;;;;;23.10;9.32;;;;;;;-11.19;64.94;101387.81;5039901;28;20469;-51
2021/12/10 06:17:58;;;;;;;19.15;8.45;;;;;;;-11.12;64.70;101397.50;5041384;28;20377;-51
2021/12/10 06:20:30;;;;;;;21.50;8.65;;;;;;;-11.40;64.44;101345.75;5042295;28;20122;-54
2021/12/10 06:22:57;;;;;;;20.17;8.23;;;;;;;-11.05;64.37;101404.63;5043808;28;20042;-54
2021/12/10 06:25:23;;;;;;;20.77;9.27;;;;;;;-11.13;64.58;101383.69;5042354;28;20048;-50
2021/12/10 06:27:48;;;;;;;26.40;10.30;;;;;;;-11.01;64.73;101406.50;5042183;28;20033;-50
2021/12/10 06:30:19;;;;;;;24.25;8.35;;;;;;;-10.84;64.12;101406.19;5041208;28;20462;-57
2021/12/10 06:32:46;;;;;;;23.00;9.18;;;;;;;-10.87;64.60;101414.72;5040700;28;20025;-55
2021/12/10 06:35:14;;;;;;;19.48;7.57;;;;;;;-10.78;64.19;101402.91;5042813;28;20108;-52
2021/12/10 06:37:41;;;;;;;24.35;9.13;;;;;;;-10.94;64.04;101347.22;5041446;28;20032;-50
2021/12/10 06:40:10;;;;;;;25.23;9.05;;;;;;;-10.18;65.59;101393.50;5043785;28;20035;-52
2021/12/10 06:42:35;;;;;;;18.08;8.23;;;;;;;-8.02;63.69;101388.53;5048174;28;20021;-55
2021/12/10 06:45:05;;;;;;;21.40;8.95;;;;;;;-5.13;55.54;101393.72;5039577;28;20397;-53
2021/12/10 06:47:31;;;;;;;21.80;8.63;;;;;;;-2.45;49.69;101375.56;5041517;28;20060;-53
2021/12/10 06:49:57;;;;;;;21.67;7.75;;;;;;;-0.44;46.21;101382.31;5040569;28;20038;-51
2021/12/10 06:52:22;;;;;;;16.00;5.40;;;;;;;0.21;43.09;101380.72;5039916;28;20028;-53
2021/12/10 06:54:48;;;;;;;19.42;7.93;;;;;;;-0.41;41.67;101384.06;5040358;28;20025;-57
2021/12/10 06:57:14;;;;;;;29.17;10.10;;;;;;;-1.16;43.90;101379.41;5041176;28;20025;-57
2021/12/10 06:59:39;;;;;;;18.35;8.20;;;;;;;-1.02;44.02;101385.44;5040309;28;20037;-55
2021/12/10 07:02:05;;;;;;;14.68;6.78;;;;;;;-0.86;41.38;101385.31;5035195;28;20300;-54
2021/12/10 07:04:32;;;;;;;19.52;9.23;;;;;;;-0.40;40.48;101378.75;5034374;28;20037;-54
2021/12/10 07:06:58;;;;;;;17.77;8.55;;;;;;;0.57;38.42;101375.88;5031992;28;20120;-49
2021/12/10 07:09:25;;;;;;;29.33;9.07;;;;;;;1.28;35.07;101377.44;5031949;28;20397;-53
2021/12/10 07:11:52;;;;;;;15.02;8.73;;;;;;;1.62;34.82;101360.13;5037079;28;20025;-51
2021/12/10 07:14:18;;;;;;;18.77;9.77;;;;;;;2.08;33.49;101371.56;5038324;28;20476;-56
2021/12/10 07:16:45;;;;;;;16.02;7.13;;;;;;;2.49;32.71;101394.50;5037489;28;20124;-53
2021/12/10 07:19:11;;;;;;;16.55;6.90;;;;;;;2.14;32.71;101371.41;5030845;28;20470;-52
2021/12/10 07:21:37;;;;;;;18.05;8.25;;;;;;;0.92;33.47;101378.88;5030514;28;20033;-51
2021/12/10 07:24:06;;;;;;;19.55;8.60;;;;;;;-0.61;35.16;101379.84;5031424;28;20029;-56
2021/12/10 07:26:33;;;;;;;19.23;8.73;;;;;;;-2.11;37.53;101398.22;5031991;28;20209;-49
2021/12/10 07:29:00;;;;;;;19.00;9.13;;;;;;;-3.42;39.13;101399.13;5038298;28;20460;-58
2021/12/10 07:31:27;;;;;;;21.25;9.23;;;;;;;-4.77;41.77;101358.34;5051497;28;20045;-54
2021/12/10 07:33:54;;;;;;;12.80;5.63;;;;;;;-5.30;43.29;101390.09;5050342;28;20045;-56
2021/12/10 07:36:21;;;;;;;20.55;9.60;;;;;;;-6.43;45.76;101398.28;5051676;28;20044;-51
2021/12/10 07:38:46;;;;;;;25.92;9.38;;;;;;;-6.91;47.24;101392.31;5051938;28;20063;-55
2021/12/10 07:41:12;;;;;;;24.25;9.20;;;;;;;-7.35;48.85;101399.38;5051703;28;20064;-55
2021/12/10 07:43:39;;;;;;;23.13;9.30;;;;;;;-7.62;49.72;101399.72;5051514;28;20033;-54
2021/12/10 07:46:05;;;;;;;23.58;9.32;;;;;;;-7.74;50.51;101402.94;5051565;28;20090;-57
2021/12/10 07:48:34;;;;;;;21.83;9.15;;;;;;;-7.76;50.25;101402.03;5051611;28;20043;-53
2021/12/10 07:51:06;;;;;;;20.77;8.90;;;;;;;-7.89;50.92;101408.72;5051217;28;20025;-55
2021/12/10 07:53:33;;;;;;;24.15;9.23;;;;;;;-7.94;51.18;101403.44;5050865;28;20025;-56
2021/12/10 07:56:02;;;;;;;17.38;8.20;;;;;;;-7.93;51.10;101418.19;5051510;28;20111;-55
2021/12/10 07:58:29;;;;;;;21.35;9.35;;;;;;;-7.72;49.90;101408.19;5051313;28;20056;-55
2021/12/10 08:00:55;;;;;;;19.33;7.18;;;;;;;-8.00;50.68;101412.81;5049150;28;20412;-55
2021/12/10 08:03:21;;;;;;;17.75;8.05;;;;;;;-8.15;51.13;101400.38;5048112;28;20124;-55
2021/12/10 08:05:48;;;;;;;21.55;8.98;;;;;;;-8.18;51.41;101402.91;5049384;28;20495;-54
2021/12/10 08:08:14;;;;;;;18.52;8.63;;;;;;;-8.25;51.55;101407.94;5031750;28;20032;-54
2021/12/10 08:10:42;;;;;;;19.15;8.15;;;;;;;-8.29;51.83;101403.53;5048127;28;20495;-56
2021/12/10 08:13:08;;;;;;;14.75;6.30;;;;;;;-8.16;50.94;101411.63;5049095;28;20078;-51
2021/12/10 08:15:34;;;;;;;19.02;9.10;;;;;;;-8.33;51.07;101416.41;5049573;28;20060;-57
2021/12/10 08:18:00;;;;;;;21.92;8.18;;;;;;;-8.51;51.95;101413.47;5051502;28;20111;-52
2021/12/10 08:20:27;;;;;;;12.45;5.32;;;;;;;-8.42;51.35;101417.97;5051137;28;20037;-55
2021/12/10 08:22:53;;;;;;;16.65;7.05;;;;;;;-8.54;51.74;101405.59;5051106;28;20138;-53
2021/12/10 08:25:21;;;;;;;19.27;9.45;;;;;;;-8.82;52.78;101401.47;5051151;28;20086;-51
2021/12/10 08:27:48;;;;;;;13.60;5.20;;;;;;;-8.67;53.07;101406.19;5050881;28;20073;-54
2021/12/10 08:30:16;;;;;;;17.13;8.15;;;;;;;-8.60;52.13;101413.25;5051334;28;20075;-53
2021/12/10 08:32:43;;;;;;;17.83;8.38;;;;;;;-8.80;52.92;101413.66;5051350;28;20037;-52
2021/12/10 08:35:12;;;;;;;17.15;7.50;;;;;;;-8.77;52.57;101407.66;5050729;28;20033;-58
2021/12/10 08:37:38;;;;;;;16.88;7.88;;;;;;;-8.74;53.04;101423.31;5050886;28;20033;-55
2021/12/10 08:40:07;;;;;;;18.75;8.52;;;;;;;-8.74;52.64;101414.63;5051294;28;20485;-54
2021/12/10 08:42:33;;;;;;;16.30;7.20;;;;;;;-8.81;53.14;101419.69;5050738;28;20048;-54
2021/12/10 08:44:59;;;;;;;27.50;7.82;;;;;;;-8.86;53.00;101397.03;5050927;28;20465;-56
2021/12/10 08:47:24;;;;;;;19.55;8.93;;;;;;;-8.91;53.21;101399.53;5051098;28;20025;-56
2021/12/10 08:49:50;;;;;;;15.80;7.25;;;;;;;-8.88;53.36;101399.63;5050798;28;20404;-51
2021/12/10 08:52:16;;;;;;;14.07;6.55;;;;;;;-8.91;52.96;101396.94;5050787;28;20539;-55
2021/12/10 08:54:43;;;;;;;16.17;6.80;;;;;;;-9.10;54.03;101399.06;5051540;28;20079;-57
2021/12/10 08:57:09;;;;;;;12.90;5.32;;;;;;;-8.97;53.21;101420.13;5051091;28;20123;-55
2021/12/10 08:59:36;;;;;;;15.20;6.75;;;;;;;-9.10;53.98;101413.75;5050748;28;20083;-58
2021/12/10 09:02:04;;;;;;;12.93;6.30;;;;;;;-9.16;53.89;101418.78;5050685;28;20028;-49
2021/12/10 09:04:31;;;;;;;18.52;6.63;;;;;;;-9.21;54.18;101425.59;5051044;28;20029;-57
2021/12/10 09:07:02;;;;;;;14.77;6.43;;;;;;;-9.31;54.35;101414.94;5050728;28;20032;-53
2021/12/10 09:09:30;;;;;;;15.95;7.15;;;;;;;-9.47;55.11;101408.47;5050582;28;20068;-55
2021/12/10 09:12:07;;;;;;;7.65;3.22;;;;;;;-9.24;55.07;101431.56;5050939;28;20031;-58
2021/12/10 09:14:42;;;;;;;17.27;7.38;;;;;;;-9.42;55.18;101411.19;5053004;28;20105;-54
2021/12/10 09:17:11;;;;;;;16.13;6.03;;;;;;;-9.34;54.92;101417.44;5054135;28;20093;-55
2021/12/10 09:19:38;;;;;;;18.67;8.10;;;;;;;-9.44;55.06;101399.91;5054015;28;20166;-54
2021/12/10 09:22:05;;;;;;;18.02;7.20;;;;;;;-9.42;55.26;101414.66;5054458;28;20472;-53
2021/12/10 09:24:31;;;;;;;12.55;4.68;;;;;;;-9.27;55.21;101419.41;5054418;28;20049;-52
2021/12/10 09:26:59;;;;;;;20.95;7.50;;;;;;;-9.48;55.32;101398.06;5052514;28;20044;-57
2021/12/10 09:29:27;;;;;;;19.83;8.63;;;;;;;-9.56;55.97;101408.22;5053967;28;20037;-57
2021/12/10 09:31:53;;;;;;;16.15;7.82;;;;;;;-9.57;55.84;101406.47;5054212;28;20021;-56
2021/12/10 09:34:19;;;;;;;22.27;8.30;;;;;;;-9.63;56.48;101427.06;5054206;28;20033;-59
2021/12/10 09:36:46;;;;;;;22.50;8.07;;;;;;;-9.47;55.46;101407.59;5053931;28;20103;-56
2021/12/10 09:39:14;;;;;;;17.50;5.40;;;;;;;-9.49;55.73;101414.47;5053918;28;20029;-57
2021/12/10 09:41:40;;;;;;;15.50;5.28;;;;;;;-9.42;55.63;101416.38;5053779;28;20036;-55
2021/12/10 09:44:08;;;;;;;22.08;9.07;;;;;;;-9.50;56.12;101410.97;5053931;28;20032;-54
2021/12/10 09:46:39;;;;;;;8.18;4.70;;;;;;;-9.32;55.50;101414.91;5052168;28;20025;-54
2021/12/10 09:49:07;;;;;;;17.50;7.78;;;;;;;-9.42;55.95;101406.00;5053496;28;20032;-53
2021/12/10 09:51:40;;;;;;;18.73;7.90;;;;;;;-9.49;56.44;101398.91;5053854;28;20110;-54
2021/12/10 09:54:11;;;;;;;15.98;6.78;;;;;;;-9.33;55.72;101410.56;5053966;28;20032;-50
2021/12/10 09:56:44;;;;;;;20.13;8.48;;;;;;;-9.39;56.34;101413.88;5053264;28;20033;-51
2021/12/10 09:59:12;;;;;;;14.60;6.38;;;;;;;-9.32;56.24;101404.53;5052677;28;20449;-55
2021/12/10 10:01:45;;;;;;;15.02;6.28;;;;;;;-9.53;56.13;101378.06;5054543;28;20033;-54
2021/12/10 10:04:15;;;;;;;16.70;6.15;;;;;;;-9.30;56.03;101411.50;5058978;28;20442;-54
2021/12/10 10:06:49;;;;;;;15.88;6.55;;;;;;;-9.19;56.15;101416.13;5056469;28;20033;-55
2021/12/10 10:09:18;;;;;;;20.63;7.72;;;;;;;-9.29;56.29;101413.25;5046229;28;20119;-53
2021/12/10 10:11:46;;;;;;;14.20;6.13;;;;;;;-9.34;56.73;101417.44;5051596;28;20037;-54
2021/12/10 10:14:12;;;;;;;20.25;7.88;;;;;;;-9.38;56.19;101403.53;5068460;28;20035;-53
2021/12/10 10:16:43;;;;;;;13.20;6.53;;;;;;;-9.18;56.03;101416.13;5056068;28;20029;-58
2021/12/10 10:19:09;;;;;;;14.68;6.63;;;;;;;-9.28;56.49;101406.38;5067376;28;20028;-56
2021/12/10 10:21:39;;;;;;;21.40;9.20;;;;;;;-9.31;56.99;101424.44;5062048;28;20032;-53
2021/12/10 10:24:05;;;;;;;20.83;8.73;;;;;;;-9.23;56.91;101423.81;5059405;28;20025;-56
2021/12/10 10:26:35;;;;;;;20.25;7.35;;;;;;;-9.13;56.96;101440.50;5068183;28;20059;-55
2021/12/10 10:29:05;;;;;;;12.55;5.97;;;;;;;-9.00;56.58;101435.63;5056888;28;20036;-57
2021/12/10 10:31:32;;;;;;;16.65;7.82;;;;;;;-8.99;57.09;101427.00;5062466;28;20139;-56
2021/12/10 10:34:00;;;;;;;17.35;7.93;;;;;;;-8.90;56.67;101434.16;5064680;28;20033;-57
2021/12/10 10:36:30;;;;;;;10.32;4.85;;;;;;;-8.63;55.84;101436.56;5056250;28;20041;-56
2021/12/10 10:39:04;;;;;;;14.10;6.55;;;;;;;-8.65;55.38;101428.72;5039901;28;20095;-53
2021/12/10 10:41:31;;;;;;;9.77;4.83;;;;;;;-8.72;55.54;101436.31;5064190;28;20021;-54
2021/12/10 10:43:57;;;;;;;18.75;7.78;;;;;;;-8.75;54.93;101437.13;5064449;28;20253;-55
2021/12/10 10:46:24;;;;;;;17.52;7.75;;;;;;;-8.86;55.57;101438.56;5056566;28;20029;-48
2021/12/10 10:48:50;;;;;;;18.77;7.50;;;;;;;-9.03;56.07;101431.25;5067550;28;20056;-52
2021/12/10 10:51:24;;;;;;;17.48;8.60;;;;;;;-9.00;56.34;101431.34;5058971;28;20024;-51
2021/12/10 10:53:51;;;;;;;15.23;6.93;;;;;;;-8.83;55.68;101444.72;5061275;28;20071;-53
2021/12/10 10:56:25;;;;;;;19.35;7.97;;;;;;;-8.76;55.67;101440.56;5066938;28;20477;-54
2021/12/10 10:58:55;;;;;;;19.63;8.15;;;;;;;-8.81;55.86;101437.84;5055756;28;20024;-52
2021/12/10 11:01:32;;;;;;;20.88;8.48;;;;;;;-8.82;55.90;101433.50;5064851;28;20044;-50
2021/12/10 11:04:03;;;;;;;8.38;4.45;;;;;;;-8.70;55.25;101442.44;5063760;28;20029;-54
2021/12/10 11:06:39;;;;;;;15.85;7.63;;;;;;;-8.75;55.09;101436.25;5055095;28;20031;-53
2021/12/10 11:09:27;;;;;;;17.95;8.63;;;;;;;-8.75;55.54;101444.03;5040862;28;20086;-53
2021/12/10 11:12:05;;;;;;;20.08;8.35;;;;;;;-8.70;55.20;101427.75;5060433;28;20024;-50
2021/12/10 11:14:40;;;;;;;22.52;9.68;;;;;;;-8.77;55.24;101438.81;5067023;28;20404;-52
2021/12/10 11:17:12;;;;;;;20.60;8.93;;;;;;;-8.89;55.35;101436.78;5056966;28;20028;-54
2021/12/10 11:19:41;;;;;;;19.08;9.00;;;;;;;-9.01;55.92;101418.31;5057627;28;20538;-50
2021/12/10 11:22:13;;;;;;;10.35;4.35;;;;;;;-8.85;56.09;101441.22;5051634;28;20040;-51
2021/12/10 11:24:44;;;;;;;16.77;7.22;;;;;;;-8.89;55.55;101443.69;5049877;28;20052;-57